Kydon — SWBZ — position and weather

sailwx.info

Track history (hours):
 
Tides and Currents Weather Stations Pressure Air Temp Water Temp Dewpoint Dewpoint Depression Visibility Wind Speed Wind Dir Waves Ship Positions

Kydon

Last reported at 2017-Sep-04 23:22 UTC. Time now 2017-Dec-16 14:47 UTC.
Position N 18°35' W 066°13'.
Warning: this ship's position is months out of date.

Length 192 m; draft 6.4 m.

Type: Passenger vessel. MMSI: 239593000.

Date/timePositionNaut miles runAvg speedWind from/ knotsBaromVisibWave heightAir tempDewpointWater temp
2017-Sep-04 23:22N 18°35' W 066°13'718.6
2017-Sep-04 23:01N 18°30' W 066°08'3 6.0
2017-Sep-04 22:31N 18°28' W 066°06'0 0.4
2017-Sep-04 21:49N 18°28' W 066°06'0 0.0
2017-Sep-04 21:31N 18°28' W 066°06'0 0.0
2017-Sep-04 20:56N 18°28' W 066°06'0 0.0
2017-Sep-04 20:29N 18°28' W 066°06'0 0.0
2017-Sep-04 19:53N 18°28' W 066°06'0 0.0
2017-Sep-04 19:29N 18°28' W 066°06'0 0.0
2017-Sep-04 18:59N 18°28' W 066°06'0 0.0
2017-Sep-04 18:11N 18°28' W 066°06'0 0.0
2017-Sep-04 17:50N 18°28' W 066°06'0 0.0
2017-Sep-04 17:14N 18°28' W 066°06'0 0.0
2017-Sep-04 16:59N 18°28' W 066°06'0 0.0
2017-Sep-04 16:29N 18°28' W 066°06'0 0.0
2017-Sep-04 15:56N 18°28' W 066°06'0 0.0
2017-Sep-04 15:29N 18°28' W 066°06'0 0.0
2017-Sep-04 14:53N 18°28' W 066°06'0 0.0
2017-Sep-04 14:20N 18°28' W 066°06'0 0.0
2017-Sep-04 13:59N 18°28' W 066°06'0 0.0
2017-Sep-04 13:29N 18°28' W 066°06'0 0.0
2017-Sep-04 12:59N 18°28' W 066°06'0 0.0
2017-Sep-04 12:29N 18°28' W 066°06'0 0.0
2017-Sep-04 11:59N 18°28' W 066°06'0 0.0
2017-Sep-04 11:29N 18°28' W 066°06'1 2.4
2017-Sep-04 11:00N 18°27' W 066°07'4 8.9
2017-Sep-04 10:30N 18°32' W 066°09'  
2017-Sep-01 23:31N 18°34' W 066°13'019.3
2017-Sep-01 23:30N 18°34' W 066°13'816.2
2017-Sep-01 23:00N 18°28' W 066°08'2 3.3
2017-Sep-01 22:28N 18°28' W 066°06'0 0.0
2017-Sep-01 22:00N 18°28' W 066°06'0 0.0
2017-Sep-01 21:30N 18°28' W 066°06'0 0.0
2017-Sep-01 21:00N 18°28' W 066°06'0 0.0
2017-Sep-01 20:30N 18°28' W 066°06'0 0.0
2017-Sep-01 19:53N 18°28' W 066°06'0 0.0
2017-Sep-01 19:20N 18°28' W 066°06'0 0.0
2017-Sep-01 18:59N 18°28' W 066°06'0 0.0
2017-Sep-01 18:29N 18°28' W 066°06'0 0.0
2017-Sep-01 17:53N 18°28' W 066°06'0 0.0
2017-Sep-01 17:26N 18°28' W 066°06'0 0.0
2017-Sep-01 16:59N 18°28' W 066°06'0 0.0
2017-Sep-01 16:26N 18°28' W 066°06'0 0.0
2017-Sep-01 15:59N 18°28' W 066°06'0 0.0
2017-Sep-01 15:26N 18°28' W 066°06'0 0.0
2017-Sep-01 14:56N 18°28' W 066°06'0 0.0
2017-Sep-01 14:29N 18°28' W 066°06'0 0.0
2017-Sep-01 13:59N 18°28' W 066°06'0 0.0
2017-Sep-01 13:29N 18°28' W 066°06'0 0.0
2017-Sep-01 12:59N 18°28' W 066°06'0 0.0
2017-Sep-01 12:29N 18°28' W 066°06'0 0.0
2017-Sep-01 11:59N 18°28' W 066°06'0 0.0
2017-Sep-01 11:29N 18°28' W 066°06'1 2.2
2017-Sep-01 11:01N 18°27' W 066°07'612.2
2017-Sep-01 10:30N 18°33' W 066°10'3 0.1
2017-Aug-30 23:23N 18°34' W 066°13'718.7
2017-Aug-30 23:00N 18°29' W 066°08'3 5.2
2017-Aug-30 22:30N 18°28' W 066°06'0 0.0
2017-Aug-30 22:00N 18°28' W 066°06'0 0.0
2017-Aug-30 21:30N 18°28' W 066°06'0 0.0
2017-Aug-30 20:58N 18°28' W 066°06'0 0.0
2017-Aug-30 20:22N 18°28' W 066°06'0 0.0
2017-Aug-30 18:34N 18°28' W 066°06'0 0.0
2017-Aug-30 18:28N 18°28' W 066°06'0 0.0
2017-Aug-30 17:52N 18°28' W 066°06'0 0.0
2017-Aug-30 17:01N 18°28' W 066°06'0 0.0
2017-Aug-30 16:58N 18°28' W 066°06'0 0.0
2017-Aug-30 15:19N 18°28' W 066°06'0 0.0
2017-Aug-30 14:34N 18°28' W 066°06'0 0.0
2017-Aug-30 14:28N 18°28' W 066°06'0 0.0
2017-Aug-30 13:52N 18°28' W 066°06'0 0.0
2017-Aug-30 13:28N 18°28' W 066°06'0 0.0
2017-Aug-30 12:10N 18°28' W 066°06'0 0.0
2017-Aug-30 11:52N 18°28' W 066°06'0 0.0
2017-Aug-30 11:28N 18°28' W 066°06'0 0.2
2017-Aug-30 11:00N 18°28' W 066°06'4 7.2
2017-Aug-30 10:30N 18°31' W 066°08'4 0.1
2017-Aug-28 11:38N 18°28' W 066°06'0 0.0
2017-Aug-28 11:29N 18°28' W 066°06'0 1.0
2017-Aug-28 11:00N 18°28' W 066°06'4 8.4
2017-Aug-28 10:30N 18°31' W 066°09'1019.0
2017-Aug-28 10:00N 18°36' W 066°18'  
Track history (hours):
 
Tides and Currents Weather Stations Pressure Air Temp Water Temp Dewpoint Dewpoint Depression Visibility Wind Speed Wind Dir Waves Ship Positions

Kydon

Last reported at 2017-Sep-04 23:22 UTC. Time now 2017-Dec-16 14:47 UTC.
Position N 18°35' W 066°13'.
Warning: this ship's position is months out of date.

Length 192 m; draft 6.4 m.

Type: Passenger vessel. MMSI: 239593000.

Date/timePositionNaut miles runAvg speedWind from/ knotsBaromVisibWave heightAir tempDewpointWater temp
2017-Sep-04 23:22N 18°35' W 066°13'718.6
2017-Sep-04 23:01N 18°30' W 066°08'3 6.0
2017-Sep-04 22:31N 18°28' W 066°06'0 0.4
2017-Sep-04 21:49N 18°28' W 066°06'0 0.0
2017-Sep-04 21:31N 18°28' W 066°06'0 0.0
2017-Sep-04 20:56N 18°28' W 066°06'0 0.0
2017-Sep-04 20:29N 18°28' W 066°06'0 0.0
2017-Sep-04 19:53N 18°28' W 066°06'0 0.0
2017-Sep-04 19:29N 18°28' W 066°06'0 0.0
2017-Sep-04 18:59N 18°28' W 066°06'0 0.0
2017-Sep-04 18:11N 18°28' W 066°06'0 0.0
2017-Sep-04 17:50N 18°28' W 066°06'0 0.0
2017-Sep-04 17:14N 18°28' W 066°06'0 0.0
2017-Sep-04 16:59N 18°28' W 066°06'0 0.0
2017-Sep-04 16:29N 18°28' W 066°06'0 0.0
2017-Sep-04 15:56N 18°28' W 066°06'0 0.0
2017-Sep-04 15:29N 18°28' W 066°06'0 0.0
2017-Sep-04 14:53N 18°28' W 066°06'0 0.0
2017-Sep-04 14:20N 18°28' W 066°06'0 0.0
2017-Sep-04 13:59N 18°28' W 066°06'0 0.0
2017-Sep-04 13:29N 18°28' W 066°06'0 0.0
2017-Sep-04 12:59N 18°28' W 066°06'0 0.0
2017-Sep-04 12:29N 18°28' W 066°06'0 0.0
2017-Sep-04 11:59N 18°28' W 066°06'0 0.0
2017-Sep-04 11:29N 18°28' W 066°06'1 2.4
2017-Sep-04 11:00N 18°27' W 066°07'4 8.9
2017-Sep-04 10:30N 18°32' W 066°09'  
2017-Sep-01 23:31N 18°34' W 066°13'019.3
2017-Sep-01 23:30N 18°34' W 066°13'816.2
2017-Sep-01 23:00N 18°28' W 066°08'2 3.3
2017-Sep-01 22:28N 18°28' W 066°06'0 0.0
2017-Sep-01 22:00N 18°28' W 066°06'0 0.0
2017-Sep-01 21:30N 18°28' W 066°06'0 0.0
2017-Sep-01 21:00N 18°28' W 066°06'0 0.0
2017-Sep-01 20:30N 18°28' W 066°06'0 0.0
2017-Sep-01 19:53N 18°28' W 066°06'0 0.0
2017-Sep-01 19:20N 18°28' W 066°06'0 0.0
2017-Sep-01 18:59N 18°28' W 066°06'0 0.0
2017-Sep-01 18:29N 18°28' W 066°06'0 0.0
2017-Sep-01 17:53N 18°28' W 066°06'0 0.0
2017-Sep-01 17:26N 18°28' W 066°06'0 0.0
2017-Sep-01 16:59N 18°28' W 066°06'0 0.0
2017-Sep-01 16:26N 18°28' W 066°06'0 0.0
2017-Sep-01 15:59N 18°28' W 066°06'0 0.0
2017-Sep-01 15:26N 18°28' W 066°06'0 0.0
2017-Sep-01 14:56N 18°28' W 066°06'0 0.0
2017-Sep-01 14:29N 18°28' W 066°06'0 0.0
2017-Sep-01 13:59N 18°28' W 066°06'0 0.0
2017-Sep-01 13:29N 18°28' W 066°06'0 0.0
2017-Sep-01 12:59N 18°28' W 066°06'0 0.0
2017-Sep-01 12:29N 18°28' W 066°06'0 0.0
2017-Sep-01 11:59N 18°28' W 066°06'0 0.0
2017-Sep-01 11:29N 18°28' W 066°06'1 2.2
2017-Sep-01 11:01N 18°27' W 066°07'612.2
2017-Sep-01 10:30N 18°33' W 066°10'3 0.1
2017-Aug-30 23:23N 18°34' W 066°13'718.7
2017-Aug-30 23:00N 18°29' W 066°08'3 5.2
2017-Aug-30 22:30N 18°28' W 066°06'0 0.0
2017-Aug-30 22:00N 18°28' W 066°06'0 0.0
2017-Aug-30 21:30N 18°28' W 066°06'0 0.0
2017-Aug-30 20:58N 18°28' W 066°06'0 0.0
2017-Aug-30 20:22N 18°28' W 066°06'0 0.0
2017-Aug-30 18:34N 18°28' W 066°06'0 0.0
2017-Aug-30 18:28N 18°28' W 066°06'0 0.0
2017-Aug-30 17:52N 18°28' W 066°06'0 0.0
2017-Aug-30 17:01N 18°28' W 066°06'0 0.0
2017-Aug-30 16:58N 18°28' W 066°06'0 0.0
2017-Aug-30 15:19N 18°28' W 066°06'0 0.0
2017-Aug-30 14:34N 18°28' W 066°06'0 0.0
2017-Aug-30 14:28N 18°28' W 066°06'0 0.0
2017-Aug-30 13:52N 18°28' W 066°06'0 0.0
2017-Aug-30 13:28N 18°28' W 066°06'0 0.0
2017-Aug-30 12:10N 18°28' W 066°06'0 0.0
2017-Aug-30 11:52N 18°28' W 066°06'0 0.0
2017-Aug-30 11:28N 18°28' W 066°06'0 0.2
2017-Aug-30 11:00N 18°28' W 066°06'4 7.2
2017-Aug-30 10:30N 18°31' W 066°08'4 0.1
2017-Aug-28 11:38N 18°28' W 066°06'0 0.0
2017-Aug-28 11:29N 18°28' W 066°06'0 1.0
2017-Aug-28 11:00N 18°28' W 066°06'4 8.4
2017-Aug-28 10:30N 18°31' W 066°09'1019.0
2017-Aug-28 10:00N 18°36' W 066°18'  

Dump ship's entire track history